Time;durP1;ratioP1;P1;durP2;ratioP2;P2;SDS_P1;SDS_P2;PMS_P1;PMS_P2;Temp;Humidity;BMP_temperature;BMP_pressure;BME280_temperature;BME280_humidity;BME280_pressure;Samples;Min_cycle;Max_cycle;Signal;HPM_P1;HPM_P2
2022/03/26 00:01:25;;;;;;;;;;;;;;;5.35;68.03;101686.77;1961720;72;20115;-57
2022/03/26 00:03:53;;;;;;;;;;;;;;;5.32;68.24;101689.37;1971017;72;20160;-58
2022/03/26 00:06:20;;;;;;;;;;;;;;;5.31;68.31;101688.06;1950312;72;20105;-58
2022/03/26 00:08:49;;;;;;;;;;;;;;;5.28;68.42;101687.64;1951486;72;20167;-66
2022/03/26 00:11:17;;;;;;;;;;;;;;;5.27;68.51;101689.80;1957477;72;20114;-62
2022/03/26 00:13:44;;;;;;;;;;;;;;;5.25;68.62;101685.03;1941230;72;20143;-62
2022/03/26 00:16:12;;;;;;;;;;;;;;;5.24;68.64;101689.83;1951312;72;20167;-61
2022/03/26 00:18:40;;;;;;;;;;;;;;;5.26;68.48;101690.70;1954894;72;20139;-66
2022/03/26 00:21:07;;;;;;;;;;;;;;;5.28;68.34;101689.39;1960720;72;20145;-65
2022/03/26 00:23:35;;;;;;;;;;;;;;;5.22;68.38;101689.83;1954006;72;20147;-64
2022/03/26 00:26:03;;;;;;;;;;;;;;;5.18;68.47;101695.05;1941225;72;20156;-62
2022/03/26 00:28:31;;;;;;;;;;;;;;;5.18;68.58;101691.13;1946943;74;20139;-64
2022/03/26 00:30:58;;;;;;;;;;;;;;;5.19;68.67;101698.10;1956402;72;20118;-61
2022/03/26 00:33:26;;;;;;;;;;;;;;;5.20;68.61;101697.21;1978379;72;20110;-58
2022/03/26 00:35:54;;;;;;;;;;;;;;;5.19;68.52;101696.80;1982646;72;20169;-59
2022/03/26 00:38:21;;;;;;;;;;;;;;;5.18;68.43;101701.16;1970910;72;20113;-58
2022/03/26 00:40:49;;;;;;;;;;;;;;;5.19;68.36;101701.58;1956485;72;20116;-59
2022/03/26 00:43:17;;;;;;;;;;;;;;;5.18;68.34;101703.77;1958712;72;20104;-61
2022/03/26 00:45:45;;;;;;;;;;;;;;;5.20;68.31;101706.35;1955696;72;20229;-62
2022/03/26 00:48:12;;;;;;;;;;;;;;;5.18;68.30;101705.08;1949621;74;20155;-61
2022/03/26 00:50:40;;;;;;;;;;;;;;;5.17;68.28;101707.69;1949735;74;20147;-64
2022/03/26 00:53:08;;;;;;;;;;;;;;;5.14;68.35;101707.67;1949846;74;20393;-60
2022/03/26 00:55:36;;;;;;;;;;;;;;;5.11;68.45;101713.78;1949698;74;20116;-59
2022/03/26 00:58:04;;;;;;;;;;;;;;;5.12;68.49;101711.59;1949750;74;20143;-57
2022/03/26 01:00:32;;;;;;;;;;;;;;;5.13;68.47;101717.70;1949662;74;20104;-59
2022/03/26 01:03:02;;;;;;;;;;;;;;;5.12;68.48;101714.20;1949666;74;20221;-57
2022/03/26 01:05:29;;;;;;;;;;;;;;;5.11;68.60;101720.72;1966558;72;20116;-60
2022/03/26 01:07:56;;;;;;;;;;;;;;;5.08;68.62;101713.77;1949719;74;20109;-60
2022/03/26 01:10:24;;;;;;;;;;;;;;;5.09;68.52;101722.47;1971153;72;20114;-60
2022/03/26 01:12:52;;;;;;;;;;;;;;;5.07;68.59;101724.21;1988305;72;20102;-60
2022/03/26 01:15:20;;;;;;;;;;;;;;;5.02;68.72;101726.39;1988172;71;20169;-62
2022/03/26 01:17:49;;;;;;;;;;;;;;;4.95;68.86;101726.41;1988224;72;20118;-61
2022/03/26 01:20:17;;;;;;;;;;;;;;;4.91;68.96;101721.61;1968874;72;20427;-60
2022/03/26 01:22:45;;;;;;;;;;;;;;;4.90;69.13;101728.13;1952997;73;20401;-61
2022/03/26 01:25:13;;;;;;;;;;;;;;;4.92;69.16;101734.22;1949739;73;20189;-59
2022/03/26 01:27:41;;;;;;;;;;;;;;;4.90;69.15;101735.52;1948952;73;20112;-60
2022/03/26 01:30:09;;;;;;;;;;;;;;;4.85;69.27;101733.38;1949685;74;20120;-61
2022/03/26 01:32:37;;;;;;;;;;;;;;;4.87;69.31;101742.48;1949782;74;20132;-60
2022/03/26 01:35:06;;;;;;;;;;;;;;;4.89;69.17;101745.54;1949571;73;20143;-59
2022/03/26 01:37:34;;;;;;;;;;;;;;;4.88;69.11;101745.09;1949674;74;20171;-60
2022/03/26 01:40:01;;;;;;;;;;;;;;;4.89;69.08;101749.87;1949719;74;20116;-60
2022/03/26 01:42:29;;;;;;;;;;;;;;;4.89;69.06;101752.06;1949585;74;20190;-60
2022/03/26 01:44:57;;;;;;;;;;;;;;;4.88;69.00;101762.05;1949704;74;20116;-60
2022/03/26 01:47:25;;;;;;;;;;;;;;;4.86;69.08;101761.63;1949688;73;20125;-61
2022/03/26 01:49:53;;;;;;;;;;;;;;;4.86;69.04;101763.80;1949719;74;20155;-59
2022/03/26 01:52:21;;;;;;;;;;;;;;;4.90;68.97;101764.23;1949885;74;20116;-59
2022/03/26 01:54:49;;;;;;;;;;;;;;;4.88;69.00;101762.05;1950317;73;20408;-61
2022/03/26 01:57:17;;;;;;;;;;;;;;;4.89;68.95;101769.03;1953293;73;20195;-59
2022/03/26 01:59:50;;;;;;;;;;;;;;;4.89;68.93;101763.81;1953347;73;20120;-61
2022/03/26 02:05:18;;;;;;;;;;;;;;;4.89;69.04;101774.66;1956060;72;20116;-58
2022/03/26 02:07:47;;;;;;;;;;;;;;;4.85;69.22;101771.21;1935421;74;20096;-58
2022/03/26 02:10:16;;;;;;;;;;;;;;;4.85;69.26;101776.42;1949891;74;20405;-57
2022/03/26 02:12:45;;;;;;;;;;;;;;;4.88;69.29;101780.33;1914658;74;20196;-57
2022/03/26 02:15:14;;;;;;;;;;;;;;;4.93;69.15;101779.91;1914318;75;20407;-57
2022/03/26 02:17:42;;;;;;;;;;;;;;;4.97;68.99;101780.78;1914188;75;20145;-59
2022/03/26 02:20:14;;;;;;;;;;;;;;;4.99;68.83;101785.12;1931983;74;20195;-59
2022/03/26 02:22:42;;;;;;;;;;;;;;;5.00;68.82;101779.05;1947512;74;20469;-59
2022/03/26 02:25:10;;;;;;;;;;;;;;;5.02;68.74;101784.27;1920681;75;20112;-59
2022/03/26 02:27:38;;;;;;;;;;;;;;;5.01;68.77;101780.77;1920693;75;20116;-59
2022/03/26 02:30:06;;;;;;;;;;;;;;;5.05;68.70;101788.61;1920612;75;20142;-59
2022/03/26 02:32:34;;;;;;;;;;;;;;;5.06;68.64;101785.14;1920508;75;20194;-59
2022/03/26 02:35:02;;;;;;;;;;;;;;;5.07;68.56;101786.86;1920595;75;20100;-60
2022/03/26 02:37:31;;;;;;;;;;;;;;;5.08;68.64;101789.92;1918315;75;20120;-60
2022/03/26 02:39:59;;;;;;;;;;;;;;;5.10;68.59;101794.70;1917756;75;20211;-60
2022/03/26 02:42:27;;;;;;;;;;;;;;;5.11;68.49;101793.41;1917752;75;20108;-60
2022/03/26 02:44:55;;;;;;;;;;;;;;;5.11;68.44;101797.33;1917683;75;20147;-59
2022/03/26 02:47:23;;;;;;;;;;;;;;;5.12;68.42;101800.80;1917755;75;20216;-59
2022/03/26 02:49:50;;;;;;;;;;;;;;;5.12;68.35;101798.19;1917745;75;20108;-59
2022/03/26 02:52:18;;;;;;;;;;;;;;;5.10;68.34;101797.32;1917745;75;20105;-59
2022/03/26 02:54:46;;;;;;;;;;;;;;;5.11;68.33;101800.34;1917749;75;20143;-59
2022/03/26 02:57:14;;;;;;;;;;;;;;;5.11;68.31;101801.24;1917703;75;20437;-60
2022/03/26 02:59:42;;;;;;;;;;;;;;;5.11;68.40;101804.27;1917652;75;20113;-59
2022/03/26 03:02:09;;;;;;;;;;;;;;;5.11;68.44;101806.87;1917780;75;20112;-59
2022/03/26 03:04:38;;;;;;;;;;;;;;;5.10;68.50;101803.84;1917774;75;20142;-59
2022/03/26 03:07:06;;;;;;;;;;;;;;;5.10;68.53;101806.02;1917749;75;20141;-59
2022/03/26 03:09:33;;;;;;;;;;;;;;;5.11;68.54;101807.77;1917743;75;20109;-59
2022/03/26 03:12:01;;;;;;;;;;;;;;;5.14;68.54;101809.50;1917663;75;20113;-61
2022/03/26 03:14:29;;;;;;;;;;;;;;;5.16;68.47;101815.59;1917811;75;20175;-60
2022/03/26 03:16:57;;;;;;;;;;;;;;;5.15;68.40;101813.87;1917689;75;20527;-60
2022/03/26 03:19:24;;;;;;;;;;;;;;;5.16;68.43;101814.28;1917663;75;20163;-61
2022/03/26 03:21:52;;;;;;;;;;;;;;;5.12;68.55;101808.62;1917793;75;20121;-60
2022/03/26 03:24:21;;;;;;;;;;;;;;;5.13;68.62;101815.61;1917750;74;20116;-59
2022/03/26 03:26:49;;;;;;;;;;;;;;;5.14;68.57;101813.41;1917769;75;20120;-60
2022/03/26 03:29:17;;;;;;;;;;;;;;;5.15;68.48;101816.48;1917749;75;20105;-59
2022/03/26 03:31:47;;;;;;;;;;;;;;;5.16;68.43;101822.11;1917765;75;20168;-60
2022/03/26 03:34:14;;;;;;;;;;;;;;;5.17;68.38;101822.56;1917860;74;20289;-60
2022/03/26 03:36:41;;;;;;;;;;;;;;;5.16;68.36;101824.73;1932706;72;20111;-59
2022/03/26 03:39:09;;;;;;;;;;;;;;;5.17;68.33;101825.17;1984830;72;20110;-60
2022/03/26 03:41:37;;;;;;;;;;;;;;;5.18;68.36;101826.90;1984925;72;20106;-60
2022/03/26 03:44:05;;;;;;;;;;;;;;;5.18;68.34;101832.12;1984936;72;20192;-58
2022/03/26 03:46:33;;;;;;;;;;;;;;;5.19;68.35;101830.83;1984919;72;20118;-58
2022/03/26 03:49:01;;;;;;;;;;;;;;;5.20;68.29;101827.77;1984978;72;20102;-60
2022/03/26 03:51:29;;;;;;;;;;;;;;;5.20;68.21;101836.50;1984925;72;20136;-58
2022/03/26 03:53:56;;;;;;;;;;;;;;;5.22;68.20;101837.81;1984874;72;20152;-59
2022/03/26 03:56:25;;;;;;;;;;;;;;;5.21;68.25;101843.44;1984939;72;20149;-59
2022/03/26 03:58:52;;;;;;;;;;;;;;;5.22;68.27;101839.97;1984941;72;20380;-58
2022/03/26 04:01:20;;;;;;;;;;;;;;;5.23;68.23;101836.92;1984945;72;20144;-59
2022/03/26 04:03:48;;;;;;;;;;;;;;;5.25;68.14;101836.48;1984947;72;20107;-57
2022/03/26 04:06:15;;;;;;;;;;;;;;;5.23;68.33;101835.17;1984878;72;20094;-58
2022/03/26 04:08:43;;;;;;;;;;;;;;;5.25;68.44;101837.79;1984980;72;20098;-58
2022/03/26 04:11:11;;;;;;;;;;;;;;;5.28;68.49;101841.72;1985005;72;20114;-59
2022/03/26 04:13:39;;;;;;;;;;;;;;;5.30;68.58;101843.89;1984910;72;20137;-58
2022/03/26 04:16:07;;;;;;;;;;;;;;;5.33;68.44;101838.68;1984875;72;20156;-60
2022/03/26 04:18:35;;;;;;;;;;;;;;;5.34;68.28;101837.80;1985034;72;20122;-61
2022/03/26 04:21:03;;;;;;;;;;;;;;;5.38;68.23;101840.83;1962850;72;20197;-60
2022/03/26 04:23:31;;;;;;;;;;;;;;;5.39;68.14;101842.59;1959667;73;20126;-61
2022/03/26 04:25:59;;;;;;;;;;;;;;;5.42;68.10;101841.70;1959647;73;20138;-60
2022/03/26 04:28:27;;;;;;;;;;;;;;;5.46;68.05;101842.58;1959745;73;20436;-59
2022/03/26 04:30:55;;;;;;;;;;;;;;;5.47;68.01;101845.20;1959638;73;20186;-59
2022/03/26 04:33:23;;;;;;;;;;;;;;;5.49;68.00;101849.98;1959566;73;20139;-59
2022/03/26 04:35:50;;;;;;;;;;;;;;;5.50;68.15;101854.80;1959627;73;20138;-59
2022/03/26 04:38:18;;;;;;;;;;;;;;;5.50;68.40;101854.80;1959613;73;20142;-58
2022/03/26 04:40:46;;;;;;;;;;;;;;;5.53;68.58;101853.47;1959639;73;20130;-58
2022/03/26 04:43:14;;;;;;;;;;;;;;;5.58;68.47;101862.17;1959601;73;20319;-59
2022/03/26 04:45:42;;;;;;;;;;;;;;;5.62;68.36;101858.69;1959563;73;20161;-59
2022/03/26 04:48:10;;;;;;;;;;;;;;;5.64;68.45;101860.86;1959585;73;20201;-58
2022/03/26 04:50:38;;;;;;;;;;;;;;;5.66;68.51;101868.70;1959654;73;20134;-58
2022/03/26 04:53:06;;;;;;;;;;;;;;;5.70;68.44;101862.18;1959607;73;20216;-58
2022/03/26 04:55:34;;;;;;;;;;;;;;;5.73;68.31;101871.30;1959614;73;20126;-58
2022/03/26 04:58:02;;;;;;;;;;;;;;;5.79;68.25;101876.55;1959576;73;20135;-58
2022/03/26 05:00:30;;;;;;;;;;;;;;;5.79;68.27;101874.34;1959634;73;20142;-58
2022/03/26 05:02:58;;;;;;;;;;;;;;;5.80;68.41;101873.04;1959646;73;20139;-59
2022/03/26 05:05:26;;;;;;;;;;;;;;;5.84;68.27;101873.05;1959612;73;20182;-58
2022/03/26 05:07:55;;;;;;;;;;;;;;;5.86;68.13;101868.69;1959616;73;20161;-59
2022/03/26 05:10:24;;;;;;;;;;;;;;;5.89;68.01;101880.02;1959818;73;20164;-59
2022/03/26 05:12:53;;;;;;;;;;;;;;;5.93;67.92;101880.43;1959463;73;20169;-58
2022/03/26 05:15:21;;;;;;;;;;;;;;;5.96;67.85;101879.61;1959628;73;20391;-58
2022/03/26 05:17:49;;;;;;;;;;;;;;;6.00;67.82;101877.41;1959629;73;20142;-58
2022/03/26 05:20:18;;;;;;;;;;;;;;;6.02;67.77;101882.20;1968172;73;20114;-58
2022/03/26 05:22:48;;;;;;;;;;;;;;;6.04;67.76;101878.28;1975069;73;20463;-58
2022/03/26 05:25:17;;;;;;;;;;;;;;;6.05;67.71;101884.82;1975120;73;20408;-59
2022/03/26 05:27:46;;;;;;;;;;;;;;;6.04;67.72;101884.37;1975151;73;20376;-57
2022/03/26 05:30:14;;;;;;;;;;;;;;;6.05;67.71;101887.84;1975113;73;20107;-57
2022/03/26 05:32:42;;;;;;;;;;;;;;;6.05;67.73;101893.08;1975014;72;20145;-58
2022/03/26 05:35:18;;;;;;;;;;;;;;;6.05;67.70;101893.97;1975058;73;20141;-57
2022/03/26 05:37:46;;;;;;;;;;;;;;;6.05;67.70;101897.89;1974967;73;20115;-59
2022/03/26 05:40:16;;;;;;;;;;;;;;;6.06;67.70;101893.08;1975074;72;20141;-58
2022/03/26 05:42:45;;;;;;;;;;;;;;;6.06;67.71;101897.00;1975251;73;20407;-57
2022/03/26 05:45:13;;;;;;;;;;;;;;;6.07;67.74;101893.95;1975171;73;20385;-57
2022/03/26 05:47:41;;;;;;;;;;;;;;;6.09;67.74;101901.37;1975353;73;20118;-57
2022/03/26 05:50:10;;;;;;;;;;;;;;;6.10;67.80;101903.96;1975180;73;20153;-58
2022/03/26 05:52:38;;;;;;;;;;;;;;;6.12;67.79;101900.94;1974100;72;20110;-58
2022/03/26 05:55:07;;;;;;;;;;;;;;;6.15;67.84;101906.59;1975162;73;20227;-59
2022/03/26 05:57:34;;;;;;;;;;;;;;;6.14;67.86;101904.41;1975112;73;20141;-58
2022/03/26 06:00:04;;;;;;;;;;;;;;;6.14;67.98;101907.45;1975151;73;20102;-58
2022/03/26 06:02:33;;;;;;;;;;;;;;;6.16;68.09;101912.23;1974905;72;20122;-58
2022/03/26 06:05:01;;;;;;;;;;;;;;;6.19;68.04;101907.86;1975058;73;20114;-60
2022/03/26 06:07:29;;;;;;;;;;;;;;;6.28;68.03;101919.20;1975145;73;20098;-59
2022/03/26 06:09:57;;;;;;;;;;;;;;;6.31;68.16;101907.44;1975120;73;20118;-59
2022/03/26 06:12:24;;;;;;;;;;;;;;;6.40;68.18;101912.64;1975167;73;20111;-59
2022/03/26 06:14:52;;;;;;;;;;;;;;;6.45;68.27;101918.70;1975175;73;20102;-59
2022/03/26 06:17:22;;;;;;;;;;;;;;;6.48;68.24;101917.39;1975140;73;20141;-60
2022/03/26 06:19:49;;;;;;;;;;;;;;;6.47;68.32;101927.41;1965913;73;20135;-60
2022/03/26 06:22:17;;;;;;;;;;;;;;;6.49;68.30;101924.39;1949705;74;20228;-60
2022/03/26 06:24:45;;;;;;;;;;;;;;;6.55;68.19;101928.28;1949732;74;20139;-60
2022/03/26 06:27:12;;;;;;;;;;;;;;;6.64;68.07;101923.88;1949711;73;20126;-59
2022/03/26 06:29:40;;;;;;;;;;;;;;;6.72;67.94;101931.28;1949735;74;20136;-59
2022/03/26 06:32:08;;;;;;;;;;;;;;;6.75;67.83;101932.13;1949642;74;20138;-59
2022/03/26 06:34:36;;;;;;;;;;;;;;;6.76;67.76;101935.61;1949858;74;20202;-59
2022/03/26 06:37:04;;;;;;;;;;;;;;;6.77;67.65;101939.98;1949735;72;20173;-61
2022/03/26 06:39:32;;;;;;;;;;;;;;;6.78;67.65;101944.78;1958631;73;20138;-60
2022/03/26 06:42:00;;;;;;;;;;;;;;;6.76;67.69;101947.39;1963013;73;20408;-61
2022/03/26 06:44:27;;;;;;;;;;;;;;;6.72;67.66;101944.36;1962940;73;20168;-61
2022/03/26 06:46:55;;;;;;;;;;;;;;;6.70;67.74;101946.13;1962954;73;20233;-61
2022/03/26 06:49:23;;;;;;;;;;;;;;;6.70;67.86;101949.59;1963015;73;20126;-59
2022/03/26 06:51:51;;;;;;;;;;;;;;;6.78;68.10;101946.95;1962970;73;20161;-60
2022/03/26 06:54:18;;;;;;;;;;;;;;;7.09;68.19;101946.37;1963010;73;20138;-60
2022/03/26 06:56:46;;;;;;;;;;;;;;;7.50;67.95;101940.44;1963158;73;20181;-59
2022/03/26 06:59:16;;;;;;;;;;;;;;;7.89;67.63;101950.19;1962438;73;20134;-59
2022/03/26 07:01:45;;;;;;;;;;;;;;;8.30;67.13;101941.08;1963092;73;20138;-59
2022/03/26 07:04:14;;;;;;;;;;;;;;;8.76;66.64;101945.84;1962216;73;20399;-58
2022/03/26 07:06:42;;;;;;;;;;;;;;;9.12;66.29;101944.93;1962995;73;20146;-59
2022/03/26 07:09:10;;;;;;;;;;;;;;;9.35;65.91;101943.73;1962998;73;20166;-60
2022/03/26 07:11:38;;;;;;;;;;;;;;;9.45;65.68;101944.03;1962953;73;20172;-61
2022/03/26 07:14:06;;;;;;;;;;;;;;;9.49;65.32;101932.56;1963007;73;20273;-61
2022/03/26 07:16:33;;;;;;;;;;;;;;;9.59;65.07;101936.80;1963045;72;20134;-59
2022/03/26 07:19:01;;;;;;;;;;;;;;;9.58;64.86;101934.19;1963984;72;20134;-59
2022/03/26 07:21:29;;;;;;;;;;;;;;;9.37;64.79;101935.37;1991807;72;20148;-57
2022/03/26 07:23:57;;;;;;;;;;;;;;;9.20;65.06;101936.52;1991765;72;20145;-57
2022/03/26 07:26:24;;;;;;;;;;;;;;;9.20;65.30;101937.83;1991725;72;20141;-59
2022/03/26 07:28:52;;;;;;;;;;;;;;;9.21;65.29;101940.86;1991791;72;20101;-58
2022/03/26 07:31:20;;;;;;;;;;;;;;;9.18;65.01;101936.09;1991829;72;20114;-58
2022/03/26 07:33:47;;;;;;;;;;;;;;;9.16;64.96;101941.36;1991818;72;20109;-59
2022/03/26 07:36:15;;;;;;;;;;;;;;;9.32;64.83;101943.80;1991803;72;20145;-59
2022/03/26 07:38:43;;;;;;;;;;;;;;;9.62;64.52;101935.41;1991128;72;20110;-61
2022/03/26 07:41:11;;;;;;;;;;;;;;;10.04;64.02;101942.17;1984867;72;20161;-60
2022/03/26 07:43:39;;;;;;;;;;;;;;;10.46;63.52;101941.87;1985047;72;20422;-60
2022/03/26 07:46:07;;;;;;;;;;;;;;;10.64;63.27;101934.94;1985037;72;20173;-56
2022/03/26 07:48:35;;;;;;;;;;;;;;;10.85;62.49;101936.73;1984943;72;20098;-58
2022/03/26 07:51:03;;;;;;;;;;;;;;;11.23;62.42;101940.28;1984939;72;20118;-58
2022/03/26 07:53:30;;;;;;;;;;;;;;;11.67;61.38;101939.70;1984861;72;20110;-59
2022/03/26 07:55:58;;;;;;;;;;;;;;;11.75;61.46;101937.29;1984940;72;20148;-59
2022/03/26 07:58:26;;;;;;;;;;;;;;;11.71;61.83;101940.02;1984866;72;20137;-58
2022/03/26 08:00:54;;;;;;;;;;;;;;;11.72;61.83;101940.45;1984958;72;20114;-57
2022/03/26 08:03:22;;;;;;;;;;;;;;;11.63;62.06;101934.09;1984895;72;20509;-60
2022/03/26 08:05:50;;;;;;;;;;;;;;;11.43;61.72;101934.09;1984920;72;20388;-59
2022/03/26 08:08:17;;;;;;;;;;;;;;;11.18;61.67;101939.95;1984877;72;20110;-59
2022/03/26 08:10:45;;;;;;;;;;;;;;;11.01;62.00;101938.11;1984910;72;20148;-59
2022/03/26 08:13:13;;;;;;;;;;;;;;;10.81;61.53;101938.11;1984933;72;20095;-58
2022/03/26 08:15:41;;;;;;;;;;;;;;;10.63;61.83;101931.90;1984914;72;20140;-59
2022/03/26 08:18:09;;;;;;;;;;;;;;;10.55;61.94;101932.48;1984885;72;20110;-58
2022/03/26 08:20:36;;;;;;;;;;;;;;;10.48;61.89;101932.22;1967472;72;20181;-60
2022/03/26 08:23:04;;;;;;;;;;;;;;;10.42;62.00;101938.02;1959846;73;20126;-58
2022/03/26 08:28:18;;;;;;;;;;;;;;;10.40;62.03;101937.60;1959582;73;20170;-60
2022/03/26 08:30:46;;;;;;;;;;;;;;;10.39;61.87;101942.01;1959590;73;20138;-59
2022/03/26 08:33:15;;;;;;;;;;;;;;;10.39;61.92;101937.20;1959532;73;20213;-60
2022/03/26 08:35:43;;;;;;;;;;;;;;;10.36;61.78;101942.05;1959614;73;20138;-60
2022/03/26 08:38:10;;;;;;;;;;;;;;;10.27;61.73;101942.20;1959593;73;20138;-59
2022/03/26 08:40:38;;;;;;;;;;;;;;;10.31;61.58;101941.30;1955881;73;20146;-59
2022/03/26 08:43:06;;;;;;;;;;;;;;;10.35;61.69;101944.75;1953597;73;20134;-59
2022/03/26 08:45:35;;;;;;;;;;;;;;;10.26;61.37;101940.94;1953533;73;20172;-59
2022/03/26 08:48:03;;;;;;;;;;;;;;;10.31;61.67;101947.88;1953512;73;20126;-59
2022/03/26 08:50:31;;;;;;;;;;;;;;;10.44;61.66;101947.20;1953673;73;20135;-58
2022/03/26 08:52:59;;;;;;;;;;;;;;;10.53;61.40;101952.30;1953571;73;20190;-59
2022/03/26 08:55:27;;;;;;;;;;;;;;;10.67;60.96;101953.32;1953615;72;20201;-59
2022/03/26 08:57:57;;;;;;;;;;;;;;;11.19;60.15;101946.08;1953660;73;20169;-58
2022/03/26 09:00:26;;;;;;;;;;;;;;;11.82;59.50;101944.58;1953622;73;20143;-58
2022/03/26 09:02:54;;;;;;;;;;;;;;;12.48;58.68;101936.73;1953766;73;20169;-58
2022/03/26 09:05:22;;;;;;;;;;;;;;;12.48;57.13;101935.41;1968603;72;20132;-60
2022/03/26 09:07:51;;;;;;;;;;;;;;;12.29;57.09;101935.92;1992217;72;20118;-60
2022/03/26 09:10:19;;;;;;;;;;;;;;;12.21;57.27;101935.28;1992162;72;20368;-60
2022/03/26 09:12:47;;;;;;;;;;;;;;;12.15;56.94;101939.38;1992007;72;20254;-60
2022/03/26 09:15:15;;;;;;;;;;;;;;;11.99;56.69;101934.97;1992092;72;20134;-58
2022/03/26 09:17:42;;;;;;;;;;;;;;;12.09;56.51;101941.73;1992061;72;20137;-59
2022/03/26 09:20:11;;;;;;;;;;;;;;;13.02;55.85;101929.45;1962551;73;20114;-60
2022/03/26 09:22:39;;;;;;;;;;;;;;;14.00;54.93;101925.44;1962740;73;20144;-58
2022/03/26 09:25:08;;;;;;;;;;;;;;;14.81;52.62;101917.69;1936275;73;20146;-61
2022/03/26 09:27:36;;;;;;;;;;;;;;;15.41;52.43;101919.77;1931625;74;20495;-60
2022/03/26 09:30:06;;;;;;;;;;;;;;;15.20;50.85;101926.81;1931519;74;20116;-58
2022/03/26 09:32:34;;;;;;;;;;;;;;;14.79;53.22;101930.58;1931661;74;20187;-61
2022/03/26 09:35:02;;;;;;;;;;;;;;;14.89;52.88;101924.02;1931573;74;20112;-60
2022/03/26 09:37:29;;;;;;;;;;;;;;;14.55;52.54;101922.61;1931506;74;20146;-60
2022/03/26 09:39:57;;;;;;;;;;;;;;;14.20;52.73;101924.75;1952564;73;20151;-61
2022/03/26 09:42:26;;;;;;;;;;;;;;;13.95;53.19;101922.55;1943709;74;20113;-59
2022/03/26 09:44:55;;;;;;;;;;;;;;;13.63;52.90;101928.00;1943537;74;20116;-61
2022/03/26 09:47:23;;;;;;;;;;;;;;;13.42;53.25;101925.58;1943594;74;20117;-60
2022/03/26 09:49:51;;;;;;;;;;;;;;;13.36;53.56;101928.42;1942024;74;20113;-60
2022/03/26 09:52:19;;;;;;;;;;;;;;;13.29;53.73;101926.39;1943471;74;20147;-61
2022/03/26 09:54:46;;;;;;;;;;;;;;;13.31;54.01;101928.55;1943595;74;20108;-62
2022/03/26 09:57:14;;;;;;;;;;;;;;;13.37;54.17;101922.67;1943589;74;20139;-60
2022/03/26 09:59:42;;;;;;;;;;;;;;;13.37;54.01;101920.91;1943534;74;20143;-60
2022/03/26 10:02:10;;;;;;;;;;;;;;;13.21;53.88;101928.89;1933969;72;20109;-62
2022/03/26 10:04:39;;;;;;;;;;;;;;;13.09;53.15;101921.72;1978551;72;20180;-62
2022/03/26 10:07:07;;;;;;;;;;;;;;;13.10;54.05;101922.14;1963302;72;20510;-61
2022/03/26 10:09:48;;;;;;;;;;;;;;;13.30;53.64;101913.62;1947133;74;20161;-61
2022/03/26 10:12:20;;;;;;;;;;;;;;;13.50;53.00;101919.59;1947168;74;20165;-62
2022/03/26 10:15:01;;;;;;;;;;;;;;;13.88;51.74;101918.76;1947226;74;20463;-61
2022/03/26 10:17:30;;;;;;;;;;;;;;;14.03;51.70;101915.19;1946421;73;20134;-60
2022/03/26 10:20:02;;;;;;;;;;;;;;;14.37;51.49;101913.54;1971080;72;20187;-59
2022/03/26 10:22:35;;;;;;;;;;;;;;;14.67;51.21;101908.91;1977403;72;20142;-60
2022/03/26 10:25:04;;;;;;;;;;;;;;;14.98;50.86;101903.77;1978504;72;20591;-63
2022/03/26 10:27:36;;;;;;;;;;;;;;;15.18;50.76;101903.43;1978411;72;20111;-63
2022/03/26 10:30:05;;;;;;;;;;;;;;;15.39;48.98;101894.61;1978506;72;20483;-60
2022/03/26 10:32:41;;;;;;;;;;;;;;;15.66;48.21;101893.52;1978709;72;20391;-60
2022/03/26 10:35:13;;;;;;;;;;;;;;;15.66;47.69;101893.52;1978586;72;20529;-64
2022/03/26 10:37:45;;;;;;;;;;;;;;;15.95;47.88;101888.34;1978472;72;20137;-62
2022/03/26 10:40:17;;;;;;;;;;;;;;;16.67;47.11;101889.56;1978417;72;20111;-62
2022/03/26 10:42:45;;;;;;;;;;;;;;;17.44;46.82;101879.27;1981739;72;20114;-59
2022/03/26 10:45:16;;;;;;;;;;;;;;;17.49;45.99;101885.23;1956340;72;20100;-58
2022/03/26 10:47:45;;;;;;;;;;;;;;;17.46;44.17;101878.23;1964574;72;20154;-58
2022/03/26 10:50:16;;;;;;;;;;;;;;;17.62;43.67;101881.00;1957766;71;20104;-63
2022/03/26 10:52:43;;;;;;;;;;;;;;;17.74;42.98;101875.06;1964045;72;20415;-62
2022/03/26 10:55:16;;;;;;;;;;;;;;;17.82;42.78;101869.81;1951725;72;20104;-61
2022/03/26 10:57:47;;;;;;;;;;;;;;;17.78;43.51;101866.45;1968197;72;20397;-60
2022/03/26 11:00:16;;;;;;;;;;;;;;;17.67;43.23;101865.66;1967782;72;20895;-60
2022/03/26 11:02:48;;;;;;;;;;;;;;;17.47;43.74;101866.66;1933293;72;20277;-61
2022/03/26 11:05:15;;;;;;;;;;;;;;;17.71;44.28;101865.03;1971428;72;20381;-61
2022/03/26 11:07:44;;;;;;;;;;;;;;;17.52;44.14;101861.97;1961162;72;20144;-60
2022/03/26 11:10:12;;;;;;;;;;;;;;;17.17;44.77;101859.70;1953124;72;20372;-61
2022/03/26 11:12:42;;;;;;;;;;;;;;;17.36;44.77;101860.53;1959899;72;20488;-61
2022/03/26 11:15:11;;;;;;;;;;;;;;;17.60;44.52;101861.58;1955724;72;20164;-61
2022/03/26 11:17:40;;;;;;;;;;;;;;;17.60;44.17;101857.59;1962788;72;20262;-66
2022/03/26 11:20:26;;;;;;;;;;;;;;;17.40;44.12;101856.40;1950823;72;20264;-63
2022/03/26 11:23:12;;;;;;;;;;;;;;;17.21;44.71;101849.33;1961261;72;20110;-63
2022/03/26 11:25:56;;;;;;;;;;;;;;;16.70;44.89;101842.89;1938796;71;20376;-60
2022/03/26 11:28:31;;;;;;;;;;;;;;;16.72;45.16;101852.98;1901413;74;20131;-62
2022/03/26 11:31:04;;;;;;;;;;;;;;;16.92;45.15;101848.94;1898288;75;20123;-62
2022/03/26 11:33:33;;;;;;;;;;;;;;;16.89;44.32;101850.41;1898857;75;20220;-57
2022/03/26 11:36:01;;;;;;;;;;;;;;;16.89;44.74;101848.22;1899099;75;20126;-67
2022/03/26 11:38:30;;;;;;;;;;;;;;;16.47;43.90;101844.84;1899573;76;20184;-62
2022/03/26 11:41:02;;;;;;;;;;;;;;;15.94;43.98;101842.80;1899486;76;20407;-57
2022/03/26 11:43:46;;;;;;;;;;;;;;;15.46;44.02;101848.79;1899615;76;20431;-58
2022/03/26 11:51:57;;;;;;;;;;;;;;;14.21;44.02;101856.27;1835817;76;20120;-57
2022/03/26 11:54:25;;;;;;;;;;;;;;;13.84;45.24;101852.28;1899343;75;20224;-59
2022/03/26 11:57:04;;;;;;;;;;;;;;;13.67;45.69;101852.02;1899393;76;20123;-58
2022/03/26 11:59:33;;;;;;;;;;;;;;;13.51;46.00;101840.61;1869698;76;20149;-61
2022/03/26 12:02:02;;;;;;;;;;;;;;;13.37;46.34;101845.52;1899301;76;20201;-61
2022/03/26 12:04:31;;;;;;;;;;;;;;;13.23;46.63;101844.60;1897158;75;20220;-59
2022/03/26 12:07:00;;;;;;;;;;;;;;;12.98;47.00;101845.83;1896808;75;20217;-57
2022/03/26 12:09:35;;;;;;;;;;;;;;;12.87;47.30;101847.95;1899312;76;20146;-58
2022/03/26 12:12:10;;;;;;;;;;;;;;;12.85;47.31;101843.17;1873885;76;20148;-56
2022/03/26 12:14:39;;;;;;;;;;;;;;;12.75;47.24;101843.92;1897669;76;20120;-56
2022/03/26 12:17:08;;;;;;;;;;;;;;;12.68;47.08;101839.27;1885204;76;20142;-57
2022/03/26 12:19:43;;;;;;;;;;;;;;;12.56;46.84;101838.33;1899571;76;20119;-55
2022/03/26 12:22:26;;;;;;;;;;;;;;;12.51;47.12;101837.59;1898575;75;20183;-55
2022/03/26 12:24:55;;;;;;;;;;;;;;;12.44;47.24;101838.68;1899458;76;20166;-57
2022/03/26 12:27:23;;;;;;;;;;;;;;;12.42;46.90;101838.72;1899309;74;20134;-59
2022/03/26 12:29:52;;;;;;;;;;;;;;;12.46;46.79;101836.39;1899365;76;20143;-58
2022/03/26 12:32:20;;;;;;;;;;;;;;;12.50;46.06;101827.92;1899329;75;20166;-59
2022/03/26 12:34:53;;;;;;;;;;;;;;;12.78;46.22;101829.73;1884999;75;20115;-58
2022/03/26 12:37:21;;;;;;;;;;;;;;;12.99;45.35;101822.92;1871734;77;20126;-59
2022/03/26 12:39:49;;;;;;;;;;;;;;;13.09;45.33;101821.23;1871824;77;20380;-58
2022/03/26 12:42:17;;;;;;;;;;;;;;;13.24;44.79;101822.55;1871605;77;20232;-59
2022/03/26 12:44:45;;;;;;;;;;;;;;;13.26;44.90;101818.50;1871735;77;20115;-59
2022/03/26 12:47:21;;;;;;;;;;;;;;;13.31;44.15;101815.28;1871721;77;20115;-59
2022/03/26 12:49:50;;;;;;;;;;;;;;;13.35;44.09;101808.11;1870849;77;20107;-58
2022/03/26 12:52:18;;;;;;;;;;;;;;;13.36;43.86;101805.88;1871700;77;20115;-59
2022/03/26 12:54:47;;;;;;;;;;;;;;;13.30;44.01;101814.86;1871740;77;20107;-60
2022/03/26 12:57:16;;;;;;;;;;;;;;;13.19;43.99;101807.74;1863870;76;20103;-59
2022/03/26 12:59:45;;;;;;;;;;;;;;;13.08;43.62;101808.95;1871655;77;20119;-58
2022/03/26 13:02:13;;;;;;;;;;;;;;;13.04;43.50;101798.50;1870875;77;20119;-59